Time;durP1;ratioP1;P1;durP2;ratioP2;P2;SDS_P1;SDS_P2;PMS_P1;PMS_P2;Temp;Humidity;BMP_temperature;BMP_pressure;BME280_temperature;BME280_humidity;BME280_pressure;Samples;Min_cycle;Max_cycle;Signal;HPM_P1;HPM_P2
2022/01/18 00:00:29;;;;;;;;;42.75;38.25;;;;;3.56;70.00;103075.84;5066521;27;46472;-63
2022/01/18 00:02:55;;;;;;;;;41.25;37.00;;;;;3.52;70.15;103080.22;5080707;27;45761;-64
2022/01/18 00:05:21;;;;;;;;;68.00;49.50;;;;;3.52;70.21;103059.44;5080742;27;45279;-63
2022/01/18 00:07:47;;;;;;;;;69.50;52.00;;;;;3.50;70.69;103065.56;5098911;27;45386;-63
2022/01/18 00:10:12;;;;;;;;;59.50;44.25;;;;;3.47;70.68;103071.66;5098740;27;45414;-62
2022/01/18 00:15:30;;;;;;;;;49.00;37.00;;;;;3.45;71.16;103059.59;5098761;27;45470;-61
2022/01/18 00:23:01;;;;;;;;;34.50;31.25;;;;;3.42;71.40;103074.34;5098740;27;45738;-62
2022/01/18 00:25:27;;;;;;;;;60.50;46.75;;;;;3.42;71.53;103084.75;5080512;27;45248;-62
2022/01/18 00:27:52;;;;;;;;;85.50;60.25;;;;;3.40;71.23;103083.06;5098492;27;45587;-62
2022/01/18 00:33:14;;;;;;;;;68.50;54.00;;;;;3.44;71.07;103073.47;5080044;27;45297;-62
2022/01/18 00:35:42;;;;;;;;;59.25;44.00;;;;;3.45;71.60;103072.59;5080082;27;45308;-64
2022/01/18 00:38:16;;;;;;;;;43.25;34.25;;;;;3.41;71.71;103083.03;5080612;27;45534;-63
2022/01/18 00:40:41;;;;;;;;;41.75;36.25;;;;;3.41;71.73;103077.84;5098313;27;45445;-63
2022/01/18 00:43:07;;;;;;;;;44.25;38.50;;;;;3.43;71.89;103064.81;5079990;27;45324;-63
2022/01/18 00:45:32;;;;;;;;;56.75;43.25;;;;;3.43;71.46;103080.41;5079529;27;56135;-64
2022/01/18 00:47:58;;;;;;;;;57.25;38.00;;;;;3.41;71.62;103080.44;5097524;27;58567;-63
2022/01/18 00:50:26;;;;;;;;;53.75;41.00;;;;;3.43;71.85;103070.03;5098192;27;45417;-62
2022/01/18 00:52:53;;;;;;;;;43.75;36.00;;;;;3.44;71.82;103061.34;5063597;27;45358;-64
2022/01/18 00:55:18;;;;;;;;;38.75;34.25;;;;;3.44;71.89;103069.16;5097858;27;45248;-62
2022/01/18 00:57:44;;;;;;;;;40.50;32.50;;;;;3.42;72.18;103066.56;5097928;27;45571;-61
2022/01/18 01:00:09;;;;;;;;;37.25;34.75;;;;;3.47;72.68;103063.03;5096877;27;74032;-63
2022/01/18 01:02:35;;;;;;;;;43.00;34.00;;;;;3.49;72.79;103058.66;5097466;27;48326;-60
2022/01/18 01:05:00;;;;;;;;;36.25;29.75;;;;;3.56;72.82;103073.25;5097174;27;60476;-61
2022/01/18 01:07:26;;;;;;;;;33.75;31.50;;;;;3.60;73.05;103061.91;5078709;27;68055;-61
2022/01/18 01:09:51;;;;;;;;;42.75;29.00;;;;;3.66;72.94;103056.59;5097721;27;46336;-63
2022/01/18 01:12:18;;;;;;;;;36.25;30.50;;;;;3.69;73.00;103060.88;5097804;27;45287;-63
2022/01/18 01:14:45;;;;;;;;;39.50;30.00;;;;;3.74;72.90;103063.38;5062669;27;45359;-62
2022/01/18 01:36:36;;;;;;;;;37.25;25.00;;;;;3.97;72.82;103068.16;5097475;27;45439;-62
2022/01/18 01:46:38;;;;;;;;;30.00;24.25;;;;;4.04;72.73;103064.53;5097367;27;45295;-63
2022/01/18 01:49:08;;;;;;;;;37.75;28.00;;;;;4.06;72.77;103070.56;5097364;27;45208;-62
2022/01/18 01:51:33;;;;;;;;;36.25;25.25;;;;;4.08;72.79;103081.78;5079528;27;46578;-63
2022/01/18 01:54:00;;;;;;;;;31.75;26.75;;;;;4.10;72.66;103066.16;5097193;27;45383;-63
2022/01/18 01:56:27;;;;;;;;;32.00;24.75;;;;;4.12;72.53;103061.78;5079158;27;45441;-62
2022/01/18 01:58:52;;;;;;;;;37.75;24.00;;;;;4.12;72.55;103074.81;5078957;27;45383;-64
2022/01/18 02:01:18;;;;;;;;;36.00;26.50;;;;;4.13;72.78;103068.72;5078525;27;46907;-63
2022/01/18 02:03:44;;;;;;;;;34.00;24.50;;;;;4.14;72.61;103063.47;5096957;27;45435;-64
2022/01/18 02:06:09;;;;;;;;;30.50;23.25;;;;;4.13;72.83;103072.16;5097093;27;45346;-62
2022/01/18 02:08:35;;;;;;;;;22.25;17.00;;;;;4.15;72.84;103061.72;5096849;27;49693;-62
2022/01/18 02:11:00;;;;;;;;;28.25;20.75;;;;;4.16;73.05;103051.28;5077597;27;71404;-63
2022/01/18 02:13:25;;;;;;;;;27.25;19.75;;;;;4.16;73.06;103053.88;5096379;27;56939;-63
2022/01/18 02:21:46;;;;;;;;;22.75;16.25;;;;;4.20;72.88;103049.47;5067039;27;45411;-62
2022/01/18 02:24:05;;;;;;;;;29.00;19.25;;;;;4.21;73.09;103056.41;5079188;27;45394;-62
2022/01/18 02:26:31;;;;;;;;;29.75;21.25;;;;;4.19;72.93;103047.78;5061332;27;45251;-63
2022/01/18 02:29:00;;;;;;;;;25.25;18.00;;;;;4.22;72.82;103045.09;5078218;27;45264;-62
2022/01/18 02:31:26;;;;;;;;;34.50;22.75;;;;;4.24;73.05;103040.69;5078288;27;48211;-62
2022/01/18 02:33:51;;;;;;;;;28.25;19.50;;;;;4.24;73.38;103032.03;5078271;27;45402;-63
2022/01/18 02:36:16;;;;;;;;;29.00;19.25;;;;;4.25;73.39;103034.59;5095901;27;59622;-61
2022/01/18 02:38:42;;;;;;;;;22.00;17.75;;;;;4.28;73.19;103023.28;5095857;27;65303;-62
2022/01/18 02:41:07;;;;;;;;;34.25;23.00;;;;;4.29;72.77;103025.84;5095656;27;67035;-63
2022/01/18 02:43:50;;;;;;;;;23.75;18.75;;;;;4.30;72.88;103022.34;5062344;27;45378;-64
2022/01/18 02:46:16;;;;;;;;;28.50;20.75;;;;;4.29;72.64;103017.19;5100295;27;45328;-64
2022/01/18 02:48:41;;;;;;;;;21.50;17.75;;;;;4.28;72.74;103015.47;5081957;27;45469;-61
2022/01/18 02:51:07;;;;;;;;;22.75;18.75;;;;;4.28;72.86;103024.13;5099159;27;68191;-62
2022/01/18 02:53:32;;;;;;;;;24.25;20.00;;;;;4.27;72.84;103022.41;5099451;27;61267;-61
2022/01/18 02:55:58;;;;;;;;;27.50;20.75;;;;;4.29;73.09;103014.59;5099080;27;69459;-62
2022/01/18 02:58:28;;;;;;;;;22.50;18.75;;;;;4.29;73.00;103010.22;5081663;27;45362;-63
2022/01/18 03:03:37;;;;;;;;;27.25;19.25;;;;;4.30;73.08;103014.53;5083328;27;45411;-64
2022/01/18 03:06:06;;;;;;;;;18.75;15.75;;;;;4.30;72.75;103011.94;5081542;27;45432;-61
2022/01/18 03:08:31;;;;;;;;;24.00;19.00;;;;;4.34;73.13;103009.28;5064513;27;45474;-62
2022/01/18 03:10:57;;;;;;;;;27.50;19.00;;;;;4.32;73.13;103006.72;5099460;27;46243;-63
2022/01/18 03:13:22;;;;;;;;;19.25;17.00;;;;;4.30;73.10;102996.31;5081325;27;45284;-60
2022/01/18 03:15:47;;;;;;;;;28.50;20.75;;;;;4.32;72.99;102998.91;5099765;27;45264;-64
2022/01/18 03:18:13;;;;;;;;;29.00;20.00;;;;;4.30;73.07;102993.72;5099769;27;45208;-61
2022/01/18 03:20:38;;;;;;;;;30.25;19.75;;;;;4.27;73.06;102987.75;5099485;27;45307;-62
2022/01/18 03:23:11;;;;;;;;;32.75;21.75;;;;;4.26;73.24;102994.69;5099367;27;45234;-61
2022/01/18 03:25:52;;;;;;;;;21.00;19.00;;;;;4.24;73.13;102996.44;5082450;27;45343;-63
2022/01/18 03:28:17;;;;;;;;;34.25;22.00;;;;;4.22;73.11;102977.44;5081233;27;45406;-61
2022/01/18 03:30:44;;;;;;;;;25.50;21.50;;;;;4.20;73.16;102974.03;5080848;27;46034;-62
2022/01/18 03:33:15;;;;;;;;;28.25;19.00;;;;;4.16;73.25;102982.78;5099377;27;45441;-61
2022/01/18 03:35:41;;;;;;;;;27.75;20.00;;;;;4.18;73.25;102983.59;5099381;27;45362;-61
2022/01/18 03:38:06;;;;;;;;;18.25;13.00;;;;;4.18;73.60;102967.13;5080770;27;52457;-63
2022/01/18 03:40:31;;;;;;;;;25.75;20.25;;;;;4.17;73.20;102979.28;5080775;27;48647;-63
2022/01/18 03:42:58;;;;;;;;;28.25;21.50;;;;;4.15;73.28;102987.13;5098923;27;45358;-62
2022/01/18 03:45:29;;;;;;;;;26.75;18.75;;;;;4.13;73.29;102985.44;5081357;27;45303;-63
2022/01/18 03:47:57;;;;;;;;;23.00;15.50;;;;;4.14;73.45;102981.97;5081600;27;45383;-62
2022/01/18 03:50:22;;;;;;;;;23.50;19.25;;;;;4.13;73.38;102983.69;5098992;27;46254;-63
2022/01/18 03:52:48;;;;;;;;;23.75;18.75;;;;;4.13;73.41;102988.06;5099156;27;45445;-63
2022/01/18 03:55:15;;;;;;;;;24.50;19.25;;;;;4.13;73.62;102981.09;5097726;27;45375;-62
2022/01/18 03:57:40;;;;;;;;;25.75;19.75;;;;;4.12;73.44;102981.13;5098969;27;45539;-61
2022/01/18 04:00:08;;;;;;;;;23.00;15.25;;;;;4.11;73.63;102990.66;5098717;27;51481;-62
2022/01/18 04:02:33;;;;;;;;;26.75;16.75;;;;;4.12;73.52;102983.75;5098855;27;45860;-63
2022/01/18 04:05:00;;;;;;;;;23.00;15.25;;;;;4.11;73.60;102984.63;5098952;27;45354;-62
2022/01/18 04:07:25;;;;;;;;;26.75;21.50;;;;;4.09;73.48;102986.41;5098977;27;45526;-60
2022/01/18 04:09:50;;;;;;;;;21.25;20.00;;;;;4.07;73.57;102981.22;5098762;27;45352;-61
2022/01/18 04:12:16;;;;;;;;;26.00;17.50;;;;;4.06;73.77;102974.31;5097941;27;68130;-61
2022/01/18 04:14:42;;;;;;;;;25.75;19.50;;;;;4.05;73.49;102983.00;5098282;27;54258;-62
2022/01/18 04:27:34;;;;;;;;;32.00;18.75;;;;;3.93;73.96;102978.06;5083182;27;45430;-62
2022/01/18 04:29:59;;;;;;;;;31.50;20.00;;;;;3.92;73.99;102982.41;5098071;27;45407;-62
2022/01/18 04:32:24;;;;;;;;;21.75;19.25;;;;;3.92;74.06;102992.81;5097417;27;70284;-62
2022/01/18 04:34:50;;;;;;;;;24.25;17.00;;;;;3.91;74.29;102983.28;5079406;27;61065;-61
2022/01/18 04:37:15;;;;;;;;;28.75;23.50;;;;;3.92;74.17;102986.75;5097542;27;64678;-62
2022/01/18 04:39:42;;;;;;;;;27.00;22.00;;;;;3.92;74.21;102987.59;5097617;27;62867;-62
2022/01/18 04:42:15;;;;;;;;;24.50;18.75;;;;;3.90;74.08;102986.78;5097200;27;45979;-62
2022/01/18 04:50:08;;;;;;;;;28.00;21.50;;;;;3.83;73.97;102978.25;5098172;27;45689;-63
2022/01/18 04:52:33;;;;;;;;;29.25;19.25;;;;;3.83;74.26;102980.00;5097312;27;65104;-63
2022/01/18 04:55:01;;;;;;;;;24.00;18.75;;;;;3.79;74.14;102974.00;5097449;27;66960;-61
2022/01/18 05:00:11;;;;;;;;;28.00;18.50;;;;;3.75;74.28;102981.88;5098043;27;45880;-61
2022/01/18 05:02:36;;;;;;;;;24.00;16.25;;;;;3.75;74.15;102981.88;5078747;27;46466;-61
2022/01/18 05:05:02;;;;;;;;;24.00;19.75;;;;;3.75;74.21;102979.28;5098064;27;45487;-60
2022/01/18 05:07:27;;;;;;;;;25.50;19.00;;;;;3.72;74.16;102973.25;5079429;27;45508;-62
2022/01/18 05:09:54;;;;;;;;;25.00;18.00;;;;;3.72;73.91;102988.03;5097564;27;53406;-63
2022/01/18 05:12:32;;;;;;;;;28.00;19.75;;;;;3.71;74.18;102992.34;5097761;27;45970;-63
2022/01/18 05:14:59;;;;;;;;;33.50;22.50;;;;;3.69;74.07;102983.75;5081736;27;45259;-61
2022/01/18 05:18:10;;;;;;;;;22.25;19.50;;;;;3.71;74.16;102978.50;5097867;27;45405;-63
2022/01/18 05:20:38;;;;;;;;;28.00;21.00;;;;;3.72;74.16;102982.81;5097042;27;45374;-61
2022/01/18 05:23:01;;;;;;;;;24.00;16.00;;;;;3.70;74.07;102984.59;5097409;27;45362;-61
2022/01/18 05:25:29;;;;;;;;;20.25;17.75;;;;;3.68;74.04;102987.22;5097816;27;45366;-62
2022/01/18 05:27:59;;;;;;;;;20.75;16.50;;;;;3.69;73.89;102982.88;5062915;27;45338;-61
2022/01/18 05:30:25;;;;;;;;;28.75;18.25;;;;;3.68;74.26;102984.63;5079263;27;46025;-62
2022/01/18 05:32:50;;;;;;;;;19.50;15.00;;;;;3.69;73.98;102983.75;5079213;27;45438;-63
2022/01/18 05:35:15;;;;;;;;;15.75;14.50;;;;;3.70;74.16;102980.25;5078684;27;45737;-63
2022/01/18 05:37:41;;;;;;;;;24.25;18.75;;;;;3.70;74.21;102975.06;5097560;27;45354;-64
2022/01/18 05:40:07;;;;;;;;;26.25;17.00;;;;;3.72;73.98;102973.25;5096389;27;71073;-62
2022/01/18 05:42:32;;;;;;;;;22.75;17.75;;;;;3.72;73.88;102975.84;5078446;27;45348;-63
2022/01/18 05:44:58;;;;;;;;;22.75;18.00;;;;;3.71;74.21;102974.13;5097483;27;45367;-62
2022/01/18 05:47:24;;;;;;;;;26.00;20.75;;;;;3.72;74.03;102969.81;5078278;27;65525;-62
2022/01/18 05:49:50;;;;;;;;;21.75;18.50;;;;;3.75;74.22;102968.88;5097204;27;46211;-62
2022/01/18 05:52:15;;;;;;;;;26.50;22.25;;;;;3.72;74.27;102965.44;5096206;27;70121;-61
2022/01/18 05:54:40;;;;;;;;;24.25;20.50;;;;;3.73;74.01;102971.53;5096314;27;65445;-62
2022/01/18 05:57:06;;;;;;;;;22.75;15.50;;;;;3.77;74.10;102974.91;5077591;27;51869;-61
2022/01/18 05:59:37;;;;;;;;;20.75;18.75;;;;;3.80;74.26;102982.66;5097115;27;46150;-62
2022/01/18 06:02:13;;;;;;;;;31.50;19.75;;;;;3.82;74.28;102973.94;5097231;27;45860;-64
2022/01/18 06:07:22;;;;;;;;;29.25;20.75;;;;;3.88;73.77;102972.94;5097121;27;45441;-62
2022/01/18 06:09:48;;;;;;;;;27.50;23.00;;;;;3.89;74.14;102979.88;5096925;27;46962;-63
2022/01/18 06:12:13;;;;;;;;;31.50;23.00;;;;;3.90;73.99;102980.75;5096849;27;45307;-63
2022/01/18 06:14:39;;;;;;;;;33.25;22.25;;;;;3.91;73.93;102983.28;5077791;27;67203;-62
2022/01/18 06:17:04;;;;;;;;;29.75;24.00;;;;;3.91;73.82;102982.44;5096816;27;45589;-61
2022/01/18 06:19:29;;;;;;;;;26.50;18.25;;;;;3.92;73.62;102987.59;5079873;27;75069;-63
2022/01/18 06:21:55;;;;;;;;;32.25;23.00;;;;;3.92;73.70;102985.00;5081181;27;72170;-61
2022/01/18 06:24:20;;;;;;;;;32.00;22.75;;;;;3.93;73.71;102991.91;5082361;27;45419;-60
2022/01/18 06:26:45;;;;;;;;;34.00;26.75;;;;;3.94;73.88;102988.44;5099321;27;70320;-62
2022/01/18 06:29:11;;;;;;;;;29.75;25.75;;;;;3.95;73.85;102994.50;5099228;27;66324;-62
2022/01/18 06:31:36;;;;;;;;;26.00;21.50;;;;;3.98;73.89;102995.28;5099614;27;63605;-61
2022/01/18 06:34:02;;;;;;;;;28.25;22.75;;;;;3.99;73.90;102970.09;5099846;27;54931;-62
2022/01/18 06:36:27;;;;;;;;;32.25;25.50;;;;;4.00;73.79;102977.03;5100208;27;45329;-62
2022/01/18 06:38:52;;;;;;;;;35.25;23.50;;;;;3.98;73.85;102966.66;5099563;27;60419;-62
2022/01/18 06:41:18;;;;;;;;;28.00;21.75;;;;;3.99;73.91;102976.19;5081887;27;45284;-60
2022/01/18 06:43:43;;;;;;;;;26.00;18.75;;;;;4.00;74.03;102974.44;5100227;27;45275;-62
2022/01/18 06:46:09;;;;;;;;;29.00;23.25;;;;;3.99;73.95;102970.09;5081642;27;45311;-63
2022/01/18 06:48:34;;;;;;;;;27.25;21.50;;;;;3.99;74.21;102986.59;5099684;27;46244;-64
2022/01/18 06:50:59;;;;;;;;;19.00;17.50;;;;;4.00;74.27;102974.44;5098847;27;68424;-61
2022/01/18 06:53:31;;;;;;;;;32.75;23.25;;;;;4.02;74.31;102975.25;5099923;27;45497;-62
2022/01/18 06:55:56;;;;;;;;;34.50;26.25;;;;;4.04;74.38;102964.81;5081527;27;45453;-62
2022/01/18 06:58:21;;;;;;;;;33.00;26.75;;;;;4.06;74.50;102971.69;5099148;27;63323;-64
2022/01/18 07:00:47;;;;;;;;;32.00;26.50;;;;;4.09;74.60;102971.63;5098840;27;68453;-63
2022/01/18 07:03:12;;;;;;;;;38.25;23.75;;;;;4.14;74.85;102969.78;5081683;27;45236;-63
2022/01/18 07:05:39;;;;;;;;;35.75;26.75;;;;;4.17;75.00;102963.69;5080523;27;65743;-62
2022/01/18 07:08:04;;;;;;;;;29.25;23.00;;;;;4.22;74.66;102977.44;5081431;27;46216;-62
2022/01/18 07:10:31;;;;;;;;;30.25;23.25;;;;;4.23;74.71;102973.94;5081369;27;45294;-63
2022/01/18 07:12:58;;;;;;;;;31.00;26.50;;;;;4.25;74.63;102974.75;5099678;27;45275;-62
2022/01/18 07:15:23;;;;;;;;;33.50;23.75;;;;;4.28;74.66;102979.88;5099464;27;45464;-62
2022/01/18 07:17:48;;;;;;;;;28.00;21.50;;;;;4.30;74.75;102975.50;5099535;27;46286;-64
2022/01/18 07:20:14;;;;;;;;;33.75;22.75;;;;;4.34;74.87;102971.09;5098869;27;66425;-62
2022/01/18 07:22:42;;;;;;;;;27.75;21.00;;;;;4.36;74.71;102963.25;5081080;27;45322;-62
2022/01/18 07:25:11;;;;;;;;;28.75;25.25;;;;;4.37;74.74;102970.16;5099469;27;45269;-61
2022/01/18 07:27:37;;;;;;;;;25.25;23.75;;;;;4.37;74.93;102977.97;5099387;27;46302;-64
2022/01/18 07:30:02;;;;;;;;;30.00;22.75;;;;;4.38;74.65;102972.75;5098948;27;45480;-61
2022/01/18 07:32:28;;;;;;;;;25.50;19.75;;;;;4.40;74.73;102970.97;5099430;27;45286;-63
2022/01/18 07:34:55;;;;;;;;;24.50;22.00;;;;;4.40;74.89;102975.28;5098239;27;68900;-63
2022/01/18 07:37:21;;;;;;;;;25.50;20.50;;;;;4.42;75.20;102978.72;5099041;27;45634;-64
2022/01/18 07:39:48;;;;;;;;;35.25;25.75;;;;;4.43;75.22;102980.44;5080312;27;45312;-62
2022/01/18 07:42:14;;;;;;;;;29.50;19.25;;;;;4.45;74.98;102974.31;5099021;27;45307;-64
2022/01/18 07:44:40;;;;;;;;;24.50;21.75;;;;;4.47;75.17;102976.88;5063861;27;45517;-63
2022/01/18 07:47:05;;;;;;;;;25.50;19.50;;;;;4.49;75.08;102972.47;5099114;27;45378;-64
2022/01/18 07:49:30;;;;;;;;;24.25;21.50;;;;;4.53;75.28;102981.94;5098854;27;45354;-62
2022/01/18 07:51:56;;;;;;;;;27.50;20.25;;;;;4.57;75.27;102980.97;5097865;27;63042;-62
2022/01/18 07:54:21;;;;;;;;;19.25;16.50;;;;;4.61;75.44;102981.75;5098065;27;67339;-62
2022/01/18 07:56:47;;;;;;;;;30.00;23.00;;;;;4.65;75.20;102985.16;5079825;27;55368;-63
2022/01/18 07:59:12;;;;;;;;;35.75;29.75;;;;;4.69;75.35;102981.56;5098856;27;45300;-61
2022/01/18 08:01:38;;;;;;;;;29.75;22.75;;;;;4.72;75.33;102982.34;5080599;27;45671;-63
2022/01/18 08:04:03;;;;;;;;;32.75;26.25;;;;;4.75;75.23;102979.66;5098679;27;46433;-61
2022/01/18 08:06:29;;;;;;;;;35.75;25.75;;;;;4.79;75.10;102977.84;5063516;27;46315;-62
2022/01/18 08:08:54;;;;;;;;;33.50;23.25;;;;;4.83;75.29;102982.06;5099022;27;45193;-61
2022/01/18 08:11:19;;;;;;;;;40.00;31.00;;;;;4.86;75.42;102976.78;5079773;27;66456;-63
2022/01/18 08:13:48;;;;;;;;;36.00;28.75;;;;;4.91;75.17;102984.50;5080034;27;62658;-62
2022/01/18 08:18:49;;;;;;;;;51.75;38.75;;;;;4.98;74.71;102982.59;5098697;27;45814;-62
2022/01/18 08:21:14;;;;;;;;;41.50;36.25;;;;;5.00;74.87;102978.19;5080266;27;45346;-60
2022/01/18 08:23:40;;;;;;;;;44.75;35.50;;;;;5.02;75.07;102977.28;5097904;27;63927;-63
2022/01/18 08:26:05;;;;;;;;;46.00;31.50;;;;;5.07;74.88;102966.72;5097632;27;68692;-63
2022/01/18 08:28:31;;;;;;;;;39.25;29.00;;;;;5.09;74.77;102977.09;5079277;27;65546;-62
2022/01/18 08:30:56;;;;;;;;;40.75;33.75;;;;;5.09;74.59;102966.66;5079737;27;49975;-61
2022/01/18 08:33:22;;;;;;;;;43.25;31.50;;;;;5.14;74.65;102970.88;5097524;27;66542;-62
2022/01/18 08:35:47;;;;;;;;;26.50;22.25;;;;;5.16;74.79;102970.81;5098122;27;45495;-63
2022/01/18 08:38:12;;;;;;;;;22.25;18.00;;;;;5.22;74.78;102964.63;5098517;27;45489;-63
2022/01/18 08:40:38;;;;;;;;;27.75;19.75;;;;;5.27;74.74;102960.13;5097257;27;63744;-64
2022/01/18 08:43:03;;;;;;;;;22.75;19.75;;;;;5.34;74.92;102964.25;5097916;27;45613;-63
2022/01/18 08:45:29;;;;;;;;;23.25;17.00;;;;;5.39;74.84;102957.16;5079224;27;67287;-61
2022/01/18 08:47:54;;;;;;;;;21.50;16.25;;;;;5.47;74.71;102965.66;5097546;27;59712;-64
2022/01/18 08:50:19;;;;;;;;;19.75;15.25;;;;;5.50;74.62;102968.16;5083733;27;45419;-62
2022/01/18 08:52:50;;;;;;;;;24.75;21.00;;;;;5.58;74.52;102973.16;5097394;27;45566;-63
2022/01/18 08:55:16;;;;;;;;;28.50;18.50;;;;;5.63;74.27;102970.44;5096559;27;45486;-63
2022/01/18 08:57:41;;;;;;;;;29.50;22.25;;;;;5.70;74.06;102960.66;5065239;27;46636;-62
2022/01/18 09:00:09;;;;;;;;;25.50;20.50;;;;;5.75;74.08;102964.88;5096804;27;45335;-61
2022/01/18 09:02:34;;;;;;;;;29.75;24.50;;;;;5.81;73.92;102965.59;5078736;27;45370;-62
2022/01/18 09:05:00;;;;;;;;;27.25;21.50;;;;;5.87;73.96;102968.00;5097792;27;62040;-61
2022/01/18 09:07:25;;;;;;;;;24.75;22.75;;;;;5.92;73.61;102955.69;5096968;27;62844;-62
2022/01/18 09:09:55;;;;;;;;;31.50;21.75;;;;;5.96;73.65;102962.50;5096664;27;45215;-62
2022/01/18 09:12:20;;;;;;;;;32.50;23.00;;;;;5.99;73.51;102961.59;5096117;27;45437;-61
2022/01/18 09:14:46;;;;;;;;;32.25;24.25;;;;;6.03;73.28;102960.63;5095495;27;69556;-64
2022/01/18 09:17:11;;;;;;;;;29.25;23.25;;;;;6.07;73.42;102964.84;5095818;27;64113;-61
2022/01/18 09:19:37;;;;;;;;;32.75;23.50;;;;;6.13;73.42;102967.25;5094062;27;45694;-62
2022/01/18 09:22:03;;;;;;;;;32.25;25.25;;;;;6.21;73.44;102972.25;5096263;27;45413;-61
2022/01/18 09:24:29;;;;;;;;;30.50;23.75;;;;;6.27;73.10;102965.97;5077733;27;45516;-62
2022/01/18 09:26:55;;;;;;;;;37.25;24.25;;;;;6.32;73.30;102964.94;5096389;27;45380;-62
2022/01/18 09:29:21;;;;;;;;;37.50;25.75;;;;;6.38;73.15;102969.97;5096132;27;45491;-64
2022/01/18 09:31:46;;;;;;;;;38.00;28.00;;;;;6.44;72.97;102955.88;5078874;27;45422;-63
2022/01/18 09:34:11;;;;;;;;;35.25;29.25;;;;;6.51;72.78;102961.75;5076856;27;70388;-61
2022/01/18 09:36:37;;;;;;;;;35.75;28.75;;;;;6.58;72.71;102967.63;5095909;27;45394;-60
2022/01/18 09:39:03;;;;;;;;;33.25;29.00;;;;;6.66;72.75;102963.00;5096183;27;45429;-62
2022/01/18 09:41:30;;;;;;;;;33.00;25.50;;;;;6.73;72.40;102956.66;5099158;27;45904;-61
2022/01/18 09:43:56;;;;;;;;;37.50;30.50;;;;;6.84;72.41;102961.56;5091378;27;45497;-63
2022/01/18 09:46:25;;;;;;;;;39.00;28.00;;;;;6.98;72.48;102955.84;5077405;27;58087;-61
2022/01/18 09:48:55;;;;;;;;;39.25;31.50;;;;;7.13;72.32;102954.44;5078025;27;45340;-62
2022/01/18 09:51:21;;;;;;;;;42.75;33.00;;;;;7.28;71.68;102955.66;5079519;27;45563;-61
2022/01/18 09:53:46;;;;;;;;;37.50;28.25;;;;;7.41;71.54;102962.16;5081661;27;46533;-63
2022/01/18 09:56:12;;;;;;;;;44.00;29.25;;;;;7.64;71.46;102967.47;5077175;27;45482;-61
2022/01/18 09:58:37;;;;;;;;;39.00;28.50;;;;;7.86;71.21;102959.66;5077006;27;62422;-62
2022/01/18 10:01:03;;;;;;;;;35.00;26.75;;;;;8.11;70.52;102961.34;5079142;27;61342;-65
2022/01/18 10:03:30;;;;;;;;;45.50;33.25;;;;;8.36;70.27;102963.84;5095186;27;46207;-63
2022/01/18 10:05:56;;;;;;;;;33.75;28.50;;;;;8.63;69.35;102961.03;5078772;27;45953;-61
2022/01/18 10:08:21;;;;;;;;;42.00;30.50;;;;;8.88;68.89;102962.66;5062555;27;45307;-63
2022/01/18 10:10:48;;;;;;;;;34.25;27.00;;;;;9.09;68.40;102952.13;5069375;27;45382;-63
2022/01/18 10:13:16;;;;;;;;;33.00;28.50;;;;;9.37;67.76;102956.19;5077404;27;45558;-63
2022/01/18 10:15:57;;;;;;;;;37.50;30.00;;;;;9.58;66.92;102957.81;5077733;27;45370;-63
2022/01/18 10:18:22;;;;;;;;;33.00;30.50;;;;;9.79;66.33;102960.41;5095722;27;45390;-65
2022/01/18 10:20:49;;;;;;;;;36.25;30.50;;;;;10.01;65.57;102943.66;5077455;27;63943;-62
2022/01/18 10:23:24;;;;;;;;;36.50;30.50;;;;;10.23;65.33;102943.47;5080966;27;45662;-60
2022/01/18 10:25:50;;;;;;;;;35.00;29.50;;;;;10.42;64.62;102940.81;5078616;27;45853;-63
2022/01/18 10:28:28;;;;;;;;;32.25;26.50;;;;;10.62;63.88;102934.56;5095737;27;45296;-60
2022/01/18 10:30:54;;;;;;;;;34.00;26.50;;;;;10.80;63.40;102929.31;5097946;27;45215;-63
2022/01/18 10:33:26;;;;;;;;;26.75;24.00;;;;;10.99;63.26;102924.78;5079446;27;46251;-62
2022/01/18 10:36:10;;;;;;;;;38.00;26.50;;;;;11.21;62.71;102918.41;5093051;27;45449;-64
2022/01/18 10:38:37;;;;;;;;;32.50;28.75;;;;;11.42;62.04;102918.16;5098965;27;45480;-64
2022/01/18 10:41:30;;;;;;;;;35.25;28.75;;;;;11.64;62.05;102907.34;5095756;27;46278;-66
2022/01/18 10:44:08;;;;;;;;;35.25;28.25;;;;;11.84;61.31;102902.75;5081223;27;45387;-62
2022/01/18 10:46:45;;;;;;;;;34.25;26.75;;;;;12.06;61.17;102905.03;5097669;27;45395;-63
2022/01/18 10:49:11;;;;;;;;;33.00;31.25;;;;;12.26;59.97;102895.97;5095842;27;45512;-62
2022/01/18 10:51:41;;;;;;;;;33.25;29.25;;;;;12.39;59.69;102890.88;5094513;27;64457;-62
2022/01/18 10:54:10;;;;;;;;;31.25;28.75;;;;;12.53;59.16;102890.03;5071582;27;46286;-63
2022/01/18 10:56:47;;;;;;;;;30.00;25.50;;;;;12.58;59.01;102887.97;5095150;27;45803;-62
2022/01/18 10:59:25;;;;;;;;;32.00;28.50;;;;;12.64;57.99;102884.13;5095698;27;45493;-63
2022/01/18 11:02:17;;;;;;;;;32.75;25.00;;;;;12.66;57.74;102878.78;5062340;27;45502;-64
2022/01/18 11:04:47;;;;;;;;;33.25;29.50;;;;;12.67;57.20;102873.38;5078115;27;46228;-65
2022/01/18 11:07:14;;;;;;;;;30.50;22.00;;;;;12.65;57.56;102877.06;5081572;27;45459;-61
2022/01/18 11:09:39;;;;;;;;;26.00;21.25;;;;;12.64;57.56;102870.09;5098821;27;45253;-62
2022/01/18 11:12:06;;;;;;;;;23.75;20.50;;;;;12.60;57.21;102850.97;5080224;27;45268;-64
2022/01/18 11:14:32;;;;;;;;;21.50;19.25;;;;;12.53;57.20;102854.91;5105351;27;46440;-63
2022/01/18 11:16:58;;;;;;;;;22.50;19.25;;;;;12.50;56.62;102848.03;5097654;27;45337;-62
2022/01/18 11:21:50;;;;;;;;;17.00;15.00;;;;;12.39;56.33;102835.50;5103349;27;45297;-61
2022/01/18 11:24:15;;;;;;;;;16.00;13.75;;;;;12.34;56.95;102836.69;5075190;27;47552;-64
2022/01/18 11:26:43;;;;;;;;;15.50;15.50;;;;;12.29;56.37;102829.91;5098621;27;45418;-64
2022/01/18 11:29:09;;;;;;;;;18.00;14.75;;;;;12.26;56.33;102829.25;5080139;27;45467;-66
2022/01/18 11:31:35;;;;;;;;;22.00;19.75;;;;;12.20;56.56;102817.25;5080286;27;45556;-61
2022/01/18 11:34:00;;;;;;;;;21.25;15.50;;;;;12.17;55.99;102812.19;5082896;27;66674;-64
2022/01/18 11:36:28;;;;;;;;;16.75;14.50;;;;;12.13;56.28;102808.88;5079601;27;45566;-62
2022/01/18 11:38:56;;;;;;;;;21.75;19.25;;;;;12.09;56.15;102804.72;5063077;27;45452;-62
2022/01/18 11:41:29;;;;;;;;;18.75;18.50;;;;;12.07;56.60;102801.31;5074710;27;45533;-62
2022/01/18 11:43:55;;;;;;;;;24.50;22.50;;;;;12.08;56.68;102796.91;5070123;27;45671;-62
2022/01/18 11:46:38;;;;;;;;;20.75;17.00;;;;;12.05;56.68;102795.31;5098313;27;45492;-62
2022/01/18 11:49:04;;;;;;;;;21.00;17.25;;;;;12.01;56.96;102793.78;5101239;27;45508;-66
2022/01/18 11:51:48;;;;;;;;;35.33;29.67;;;;;11.97;56.90;102800.13;5098113;27;45442;-61
2022/01/18 11:57:01;;;;;;;;;15.75;14.50;;;;;11.88;56.53;102786.59;5118040;27;45489;-64
2022/01/18 11:59:37;;;;;;;;;17.50;15.25;;;;;11.80;56.21;102791.44;5104031;27;45315;-62
2022/01/18 12:02:05;;;;;;;;;15.00;13.25;;;;;11.76;56.41;102782.03;5081424;27;45403;-63
2022/01/18 12:04:54;;;;;;;;;20.00;17.00;;;;;11.72;56.72;102778.69;5098101;27;46437;-64
2022/01/18 12:07:34;;;;;;;;;19.00;15.00;;;;;11.73;56.52;102779.56;5083895;27;45967;-62
2022/01/18 12:10:07;;;;;;;;;21.50;16.00;;;;;11.71;56.42;102776.16;5097438;27;45309;-63
2022/01/18 12:12:46;;;;;;;;;24.75;18.75;;;;;11.72;56.97;102772.59;5078923;27;45488;-62
2022/01/18 12:15:23;;;;;;;;;26.50;21.00;;;;;11.73;57.09;102769.03;5097499;27;45660;-62
2022/01/18 12:17:52;;;;;;;;;19.75;18.25;;;;;11.73;57.21;102764.59;5098287;27;45423;-60
2022/01/18 12:20:32;;;;;;;;;21.00;16.25;;;;;11.75;57.07;102756.63;5100567;27;45379;-63
2022/01/18 12:23:03;;;;;;;;;18.75;17.75;;;;;11.76;56.74;102752.19;5097346;27;45247;-61
2022/01/18 12:25:30;;;;;;;;;19.75;18.00;;;;;11.77;56.54;102744.22;5081321;27;46157;-63
2022/01/18 12:28:01;;;;;;;;;18.00;15.50;;;;;11.79;56.81;102741.47;5078895;27;46232;-65
2022/01/18 12:30:53;;;;;;;;;21.50;18.00;;;;;11.81;57.06;102735.19;5078855;27;45295;-62
2022/01/18 12:33:18;;;;;;;;;22.50;21.75;;;;;11.86;57.60;102732.28;5064141;27;45539;-63